Main page
METAR-TAF:

METAR-TAF

Airports :

Land's End Airport

Land's End, England

latitude: 50-06-10N, longitude: 005-40-14W, elevation: 122 m

Current weather observation

The report was made 6 hours and 51 minutes ago, at 16:20 UTC
Wind 18 kt from the South
Temperature 12°C
Humidity 94%
Pressure 1007 hPa
Visibility: 9000 m
Few clouds at a height of 400 ft
Scattered clouds at a height of 800 ft
Broken clouds at a height of 3500 ft

METAR: EGHC 241620Z 19018KT 9000 FEW004 SCT008 BKN035 12/11 Q1007

Time: 23:11 (23:11 UTC)

Forecast

The report was made 9 hours and 17 minutes ago, at 13:54 UTC
Forecast valid from 24 at 15 UTC to 24 at 18 UTC
Wind 17 kt from the South
Visibility 10 km or more
Scattered clouds at a height of 1500 ft
Temporary
from 24 at 15 UTC to 24 at 18 UTC
Wind 20 kt from the South with gusts up to 30 kt
Visibility: 6000 m
Broken clouds at a height of 800 ft
light rain, drizzle

TAF: EGHC 241354Z 2415/2418 18017KT 9999 SCT015 TEMPO 2415/2418 19020G30KT 6000 -RADZ BKN008

Weather observations and forecasts of more than 4000 airports (METAR and TAF reports).

The available stations are represented by yellow and red dots on the map.

Hover mouse over dot to see the name of the station.

Then click to see weather observations and forecasts.

To change the map : click on the green buttons with a black cross to zoom in, on the green button with a dash to zoom out, or on the green arrows for adjacent maps.


METAR-TAF: